Talmaciu, Romania
Current Conditions -  °F | °C
As of 10:00 AM on Monday 24 Nov 2014 (Local Time) from LRSB Reporting Station
Overcast Overcast  
Wind Chill: 37°   Ceiling: 2700
Heat Index: 37°   Visibility: 4mi
Dew Point: 36°   Wind: 0mph
Humidity: 93%   Direction: NA
Pressure: 30.36"   Gusts: NA
Location:  45.68°N, 24.27°E
Report Text: LRSB 240700Z 00000KT 6000 OVC027 03/02 Q1028
Loading
Personal Weather Stations






























Interactive Weather Map New forecast layout! Learn more

10-Day Weather Forecast

Advertisements
Track Severe Weather on mobile